sensor_id;sensor_type;location;lat;lon;timestamp;temperature;humidity
7694;DHT22;3889;48.162;11.510;2023-04-01T00:00:33;8.20;99.90
7694;DHT22;3889;48.162;11.510;2023-04-01T00:03:01;8.10;99.90
7694;DHT22;3889;48.162;11.510;2023-04-01T00:05:29;8.10;99.90
7694;DHT22;3889;48.162;11.510;2023-04-01T00:07:57;8.10;99.90
7694;DHT22;3889;48.162;11.510;2023-04-01T00:10:26;8.10;99.90
7694;DHT22;3889;48.162;11.510;2023-04-01T00:12:54;8.10;99.90
7694;DHT22;3889;48.162;11.510;2023-04-01T00:15:22;8.00;99.90
7694;DHT22;3889;48.162;11.510;2023-04-01T00:17:50;8.00;99.90
7694;DHT22;3889;48.162;11.510;2023-04-01T00:20:18;8.00;99.90
7694;DHT22;3889;48.162;11.510;2023-04-01T00:22:46;7.90;99.90
7694;DHT22;3889;48.162;11.510;2023-04-01T00:25:14;7.90;99.90
7694;DHT22;3889;48.162;11.510;2023-04-01T00:27:43;8.00;99.90
7694;DHT22;3889;48.162;11.510;2023-04-01T00:30:12;8.00;99.90
7694;DHT22;3889;48.162;11.510;2023-04-01T00:32:40;8.00;99.90
7694;DHT22;3889;48.162;11.510;2023-04-01T00:35:08;7.90;99.90
7694;DHT22;3889;48.162;11.510;2023-04-01T00:37:37;7.90;99.90
7694;DHT22;3889;48.162;11.510;2023-04-01T00:40:11;8.00;99.90
7694;DHT22;3889;48.162;11.510;2023-04-01T00:42:50;7.90;99.90
7694;DHT22;3889;48.162;11.510;2023-04-01T00:45:27;7.90;99.90
7694;DHT22;3889;48.162;11.510;2023-04-01T00:47:59;7.80;99.90
7694;DHT22;3889;48.162;11.510;2023-04-01T00:50:28;7.80;99.90
7694;DHT22;3889;48.162;11.510;2023-04-01T00:52:59;7.80;99.90
7694;DHT22;3889;48.162;11.510;2023-04-01T00:55:29;7.80;99.90
7694;DHT22;3889;48.162;11.510;2023-04-01T00:58:02;7.80;99.90
7694;DHT22;3889;48.162;11.510;2023-04-01T01:00:31;7.90;99.90
7694;DHT22;3889;48.162;11.510;2023-04-01T01:02:59;7.80;99.90
7694;DHT22;3889;48.162;11.510;2023-04-01T01:05:38;7.80;99.90
7694;DHT22;3889;48.162;11.510;2023-04-01T01:08:18;7.90;99.90
7694;DHT22;3889;48.162;11.510;2023-04-01T01:10:49;7.90;99.90
7694;DHT22;3889;48.162;11.510;2023-04-01T01:13:24;8.00;99.90
7694;DHT22;3889;48.162;11.510;2023-04-01T01:15:58;7.90;99.90
7694;DHT22;3889;48.162;11.510;2023-04-01T01:18:33;8.00;99.90
7694;DHT22;3889;48.162;11.510;2023-04-01T01:21:43;8.00;99.90
7694;DHT22;3889;48.162;11.510;2023-04-01T01:24:26;8.00;99.90
7694;DHT22;3889;48.162;11.510;2023-04-01T01:27:03;8.10;99.90
7694;DHT22;3889;48.162;11.510;2023-04-01T01:32:38;8.00;99.90
7694;DHT22;3889;48.162;11.510;2023-04-01T01:35:21;8.10;99.90
7694;DHT22;3889;48.162;11.510;2023-04-01T01:37:53;8.10;99.90
7694;DHT22;3889;48.162;11.510;2023-04-01T01:40:24;8.10;99.90
7694;DHT22;3889;48.162;11.510;2023-04-01T01:42:56;8.00;99.90
7694;DHT22;3889;48.162;11.510;2023-04-01T01:45:26;8.00;99.90
7694;DHT22;3889;48.162;11.510;2023-04-01T01:47:56;8.00;99.90
7694;DHT22;3889;48.162;11.510;2023-04-01T01:50:27;8.00;99.90
7694;DHT22;3889;48.162;11.510;2023-04-01T01:53:04;8.00;99.90
7694;DHT22;3889;48.162;11.510;2023-04-01T01:55:33;8.00;99.90
7694;DHT22;3889;48.162;11.510;2023-04-01T01:58:05;8.10;99.90
7694;DHT22;3889;48.162;11.510;2023-04-01T02:00:35;8.00;99.90
7694;DHT22;3889;48.162;11.510;2023-04-01T02:03:03;8.10;99.90
7694;DHT22;3889;48.162;11.510;2023-04-01T02:05:34;8.10;99.90
7694;DHT22;3889;48.162;11.510;2023-04-01T02:08:06;8.10;99.90
7694;DHT22;3889;48.162;11.510;2023-04-01T02:10:37;8.10;99.90
7694;DHT22;3889;48.162;11.510;2023-04-01T02:13:11;8.10;99.90
7694;DHT22;3889;48.162;11.510;2023-04-01T02:15:44;8.10;99.90
7694;DHT22;3889;48.162;11.510;2023-04-01T02:18:15;8.10;99.90
7694;DHT22;3889;48.162;11.510;2023-04-01T02:20:44;8.10;99.90
7694;DHT22;3889;48.162;11.510;2023-04-01T02:23:13;8.10;99.90
7694;DHT22;3889;48.162;11.510;2023-04-01T02:25:41;8.10;99.90
7694;DHT22;3889;48.162;11.510;2023-04-01T02:28:12;8.10;99.90
7694;DHT22;3889;48.162;11.510;2023-04-01T02:30:43;8.00;99.90
7694;DHT22;3889;48.162;11.510;2023-04-01T02:33:12;8.00;99.90
7694;DHT22;3889;48.162;11.510;2023-04-01T02:35:40;8.00;99.90
7694;DHT22;3889;48.162;11.510;2023-04-01T02:38:09;7.90;99.90
7694;DHT22;3889;48.162;11.510;2023-04-01T02:40:45;8.00;99.90
7694;DHT22;3889;48.162;11.510;2023-04-01T02:43:13;8.00;99.90
7694;DHT22;3889;48.162;11.510;2023-04-01T02:45:41;8.00;99.90
7694;DHT22;3889;48.162;11.510;2023-04-01T02:48:09;8.00;99.90
7694;DHT22;3889;48.162;11.510;2023-04-01T02:50:37;8.00;99.90
7694;DHT22;3889;48.162;11.510;2023-04-01T02:53:05;8.00;99.90
7694;DHT22;3889;48.162;11.510;2023-04-01T02:55:34;8.00;99.90
7694;DHT22;3889;48.162;11.510;2023-04-01T02:58:02;8.00;99.90
7694;DHT22;3889;48.162;11.510;2023-04-01T03:00:30;8.00;99.90
7694;DHT22;3889;48.162;11.510;2023-04-01T03:02:58;8.00;99.90
7694;DHT22;3889;48.162;11.510;2023-04-01T03:05:26;8.00;99.90
7694;DHT22;3889;48.162;11.510;2023-04-01T03:07:54;8.00;99.90
7694;DHT22;3889;48.162;11.510;2023-04-01T03:10:22;7.90;99.90
7694;DHT22;3889;48.162;11.510;2023-04-01T03:12:51;7.90;99.90
7694;DHT22;3889;48.162;11.510;2023-04-01T03:15:19;7.90;99.90
7694;DHT22;3889;48.162;11.510;2023-04-01T03:17:47;7.90;99.90
7694;DHT22;3889;48.162;11.510;2023-04-01T03:20:15;7.90;99.90
7694;DHT22;3889;48.162;11.510;2023-04-01T03:22:43;7.90;99.90
7694;DHT22;3889;48.162;11.510;2023-04-01T03:25:12;7.80;99.90
7694;DHT22;3889;48.162;11.510;2023-04-01T03:27:40;7.80;99.90
7694;DHT22;3889;48.162;11.510;2023-04-01T03:30:10;7.90;99.90
7694;DHT22;3889;48.162;11.510;2023-04-01T03:32:38;7.90;99.90
7694;DHT22;3889;48.162;11.510;2023-04-01T03:35:06;7.70;99.90
7694;DHT22;3889;48.162;11.510;2023-04-01T03:37:36;7.70;99.90
7694;DHT22;3889;48.162;11.510;2023-04-01T03:40:05;7.60;99.90
7694;DHT22;3889;48.162;11.510;2023-04-01T03:42:33;7.70;99.90
7694;DHT22;3889;48.162;11.510;2023-04-01T03:45:01;7.70;99.90
7694;DHT22;3889;48.162;11.510;2023-04-01T03:47:31;7.60;99.90
7694;DHT22;3889;48.162;11.510;2023-04-01T03:49:59;7.60;99.90
7694;DHT22;3889;48.162;11.510;2023-04-01T03:52:27;7.50;99.90
7694;DHT22;3889;48.162;11.510;2023-04-01T03:54:54;7.50;99.90
7694;DHT22;3889;48.162;11.510;2023-04-01T03:57:22;7.50;99.90
7694;DHT22;3889;48.162;11.510;2023-04-01T03:59:50;7.50;99.90
7694;DHT22;3889;48.162;11.510;2023-04-01T04:02:18;7.60;99.90
7694;DHT22;3889;48.162;11.510;2023-04-01T04:04:47;7.50;99.90
7694;DHT22;3889;48.162;11.510;2023-04-01T04:07:15;7.50;99.90
7694;DHT22;3889;48.162;11.510;2023-04-01T04:09:43;7.40;99.90
7694;DHT22;3889;48.162;11.510;2023-04-01T04:12:11;7.40;99.90
7694;DHT22;3889;48.162;11.510;2023-04-01T04:14:39;7.40;99.90
7694;DHT22;3889;48.162;11.510;2023-04-01T04:17:07;7.40;99.90
7694;DHT22;3889;48.162;11.510;2023-04-01T04:19:40;7.40;99.90
7694;DHT22;3889;48.162;11.510;2023-04-01T04:22:09;7.50;99.90
7694;DHT22;3889;48.162;11.510;2023-04-01T04:24:37;7.50;99.90
7694;DHT22;3889;48.162;11.510;2023-04-01T04:27:05;7.60;99.90
7694;DHT22;3889;48.162;11.510;2023-04-01T04:29:33;7.60;99.90
7694;DHT22;3889;48.162;11.510;2023-04-01T04:32:01;7.60;99.90
7694;DHT22;3889;48.162;11.510;2023-04-01T04:34:29;7.60;99.90
7694;DHT22;3889;48.162;11.510;2023-04-01T04:36:57;7.50;99.90
7694;DHT22;3889;48.162;11.510;2023-04-01T04:39:26;7.60;99.90
7694;DHT22;3889;48.162;11.510;2023-04-01T04:41:54;7.70;99.90
7694;DHT22;3889;48.162;11.510;2023-04-01T04:44:22;7.70;99.90
7694;DHT22;3889;48.162;11.510;2023-04-01T04:46:50;7.70;99.90
7694;DHT22;3889;48.162;11.510;2023-04-01T04:49:18;7.60;99.90
7694;DHT22;3889;48.162;11.510;2023-04-01T04:51:45;7.70;99.90
7694;DHT22;3889;48.162;11.510;2023-04-01T04:54:13;7.80;99.90
7694;DHT22;3889;48.162;11.510;2023-04-01T04:56:42;7.90;99.90
7694;DHT22;3889;48.162;11.510;2023-04-01T04:59:10;7.90;99.90
7694;DHT22;3889;48.162;11.510;2023-04-01T05:01:39;8.00;99.90
7694;DHT22;3889;48.162;11.510;2023-04-01T05:04:06;8.20;99.90
7694;DHT22;3889;48.162;11.510;2023-04-01T05:06:35;8.20;99.90
7694;DHT22;3889;48.162;11.510;2023-04-01T05:09:03;8.20;99.90
7694;DHT22;3889;48.162;11.510;2023-04-01T05:11:30;8.20;99.90
7694;DHT22;3889;48.162;11.510;2023-04-01T05:14:00;8.10;99.90
7694;DHT22;3889;48.162;11.510;2023-04-01T05:16:27;8.10;99.90
7694;DHT22;3889;48.162;11.510;2023-04-01T05:18:56;8.10;99.90
7694;DHT22;3889;48.162;11.510;2023-04-01T05:21:24;8.10;99.90
7694;DHT22;3889;48.162;11.510;2023-04-01T05:23:52;8.20;99.90
7694;DHT22;3889;48.162;11.510;2023-04-01T05:26:20;8.20;99.90
7694;DHT22;3889;48.162;11.510;2023-04-01T05:28:47;8.20;99.90
7694;DHT22;3889;48.162;11.510;2023-04-01T05:31:17;8.20;99.90
7694;DHT22;3889;48.162;11.510;2023-04-01T05:33:45;8.20;99.90
7694;DHT22;3889;48.162;11.510;2023-04-01T05:36:15;8.20;99.90
7694;DHT22;3889;48.162;11.510;2023-04-01T05:38:43;8.20;99.90
7694;DHT22;3889;48.162;11.510;2023-04-01T05:41:12;8.30;99.90
7694;DHT22;3889;48.162;11.510;2023-04-01T05:43:41;8.30;99.90
7694;DHT22;3889;48.162;11.510;2023-04-01T05:46:09;8.30;99.90
7694;DHT22;3889;48.162;11.510;2023-04-01T05:48:38;8.30;99.90
7694;DHT22;3889;48.162;11.510;2023-04-01T05:51:11;8.30;99.90
7694;DHT22;3889;48.162;11.510;2023-04-01T05:53:40;8.40;99.90
7694;DHT22;3889;48.162;11.510;2023-04-01T05:56:08;8.30;99.90
7694;DHT22;3889;48.162;11.510;2023-04-01T05:58:36;8.40;99.90
7694;DHT22;3889;48.162;11.510;2023-04-01T06:01:06;8.40;99.90
7694;DHT22;3889;48.162;11.510;2023-04-01T06:03:40;8.40;99.90
7694;DHT22;3889;48.162;11.510;2023-04-01T06:06:13;8.40;99.90
7694;DHT22;3889;48.162;11.510;2023-04-01T06:08:42;8.40;99.90
7694;DHT22;3889;48.162;11.510;2023-04-01T06:11:19;8.40;99.90
7694;DHT22;3889;48.162;11.510;2023-04-01T06:14:00;8.40;99.90
7694;DHT22;3889;48.162;11.510;2023-04-01T06:16:39;8.40;99.90
7694;DHT22;3889;48.162;11.510;2023-04-01T06:19:24;8.40;99.90
7694;DHT22;3889;48.162;11.510;2023-04-01T06:22:14;8.50;99.90
7694;DHT22;3889;48.162;11.510;2023-04-01T06:25:02;8.60;99.90
7694;DHT22;3889;48.162;11.510;2023-04-01T06:27:43;8.60;99.90
7694;DHT22;3889;48.162;11.510;2023-04-01T06:30:30;8.60;99.90
7694;DHT22;3889;48.162;11.510;2023-04-01T06:36:14;8.60;99.90
7694;DHT22;3889;48.162;11.510;2023-04-01T06:39:00;8.70;99.90
7694;DHT22;3889;48.162;11.510;2023-04-01T06:44:37;8.70;99.90
7694;DHT22;3889;48.162;11.510;2023-04-01T06:47:22;8.80;99.90
7694;DHT22;3889;48.162;11.510;2023-04-01T06:49:58;8.80;99.90
7694;DHT22;3889;48.162;11.510;2023-04-01T06:52:35;8.90;99.90
7694;DHT22;3889;48.162;11.510;2023-04-01T06:55:21;9.10;99.90
7694;DHT22;3889;48.162;11.510;2023-04-01T06:57:54;9.20;99.90
7694;DHT22;3889;48.162;11.510;2023-04-01T07:00:27;9.30;99.90
7694;DHT22;3889;48.162;11.510;2023-04-01T07:03:04;9.30;99.90
7694;DHT22;3889;48.162;11.510;2023-04-01T07:05:34;9.40;99.90
7694;DHT22;3889;48.162;11.510;2023-04-01T07:08:08;9.30;99.90
7694;DHT22;3889;48.162;11.510;2023-04-01T07:10:43;9.30;99.90
7694;DHT22;3889;48.162;11.510;2023-04-01T07:13:18;9.30;99.90
7694;DHT22;3889;48.162;11.510;2023-04-01T07:15:56;9.40;99.90
7694;DHT22;3889;48.162;11.510;2023-04-01T07:18:32;9.50;99.90
7694;DHT22;3889;48.162;11.510;2023-04-01T07:21:04;9.50;99.90
7694;DHT22;3889;48.162;11.510;2023-04-01T07:23:39;9.40;99.90
7694;DHT22;3889;48.162;11.510;2023-04-01T07:26:15;9.60;99.90
7694;DHT22;3889;48.162;11.510;2023-04-01T07:28:43;9.50;99.90
7694;DHT22;3889;48.162;11.510;2023-04-01T07:31:18;9.60;99.90
7694;DHT22;3889;48.162;11.510;2023-04-01T07:33:55;9.80;99.90
7694;DHT22;3889;48.162;11.510;2023-04-01T07:36:33;9.90;99.90
7694;DHT22;3889;48.162;11.510;2023-04-01T07:39:12;10.00;99.90
7694;DHT22;3889;48.162;11.510;2023-04-01T07:41:51;10.10;99.90
7694;DHT22;3889;48.162;11.510;2023-04-01T07:44:25;10.10;99.90
7694;DHT22;3889;48.162;11.510;2023-04-01T07:47:10;10.10;99.90
7694;DHT22;3889;48.162;11.510;2023-04-01T07:49:49;10.40;99.90
7694;DHT22;3889;48.162;11.510;2023-04-01T07:52:26;10.50;99.90
7694;DHT22;3889;48.162;11.510;2023-04-01T07:55:01;10.50;99.90
7694;DHT22;3889;48.162;11.510;2023-04-01T07:57:38;10.40;99.90
7694;DHT22;3889;48.162;11.510;2023-04-01T08:00:14;10.40;99.90
7694;DHT22;3889;48.162;11.510;2023-04-01T08:02:55;10.40;99.90
7694;DHT22;3889;48.162;11.510;2023-04-01T08:05:29;10.30;99.90
7694;DHT22;3889;48.162;11.510;2023-04-01T08:08:07;10.30;99.90
7694;DHT22;3889;48.162;11.510;2023-04-01T08:10:45;10.40;99.90
7694;DHT22;3889;48.162;11.510;2023-04-01T08:13:24;10.50;99.90
7694;DHT22;3889;48.162;11.510;2023-04-01T08:16:00;10.60;99.90
7694;DHT22;3889;48.162;11.510;2023-04-01T08:18:40;10.70;99.90
7694;DHT22;3889;48.162;11.510;2023-04-01T08:21:12;10.60;99.90
7694;DHT22;3889;48.162;11.510;2023-04-01T08:23:44;10.70;99.90
7694;DHT22;3889;48.162;11.510;2023-04-01T08:26:23;10.60;99.90
7694;DHT22;3889;48.162;11.510;2023-04-01T08:28:56;10.60;99.90
7694;DHT22;3889;48.162;11.510;2023-04-01T08:31:30;10.70;99.90
7694;DHT22;3889;48.162;11.510;2023-04-01T08:34:01;10.50;99.90
7694;DHT22;3889;48.162;11.510;2023-04-01T08:36:33;10.50;99.90
7694;DHT22;3889;48.162;11.510;2023-04-01T08:39:06;10.40;99.90
7694;DHT22;3889;48.162;11.510;2023-04-01T08:42:14;10.70;99.90
7694;DHT22;3889;48.162;11.510;2023-04-01T08:45:07;10.80;99.90
7694;DHT22;3889;48.162;11.510;2023-04-01T08:48:10;10.70;99.90
7694;DHT22;3889;48.162;11.510;2023-04-01T08:51:13;10.80;99.90
7694;DHT22;3889;48.162;11.510;2023-04-01T08:53:53;10.80;99.90
7694;DHT22;3889;48.162;11.510;2023-04-01T08:56:28;11.00;99.90
7694;DHT22;3889;48.162;11.510;2023-04-01T08:59:31;11.10;99.90
7694;DHT22;3889;48.162;11.510;2023-04-01T09:02:23;11.00;99.90
7694;DHT22;3889;48.162;11.510;2023-04-01T09:07:54;11.20;99.90
7694;DHT22;3889;48.162;11.510;2023-04-01T09:10:41;11.30;99.90
7694;DHT22;3889;48.162;11.510;2023-04-01T09:16:16;12.00;99.90
7694;DHT22;3889;48.162;11.510;2023-04-01T09:19:04;12.00;99.90
7694;DHT22;3889;48.162;11.510;2023-04-01T09:21:48;11.60;99.90
7694;DHT22;3889;48.162;11.510;2023-04-01T09:27:26;11.90;99.90
7694;DHT22;3889;48.162;11.510;2023-04-01T09:30:31;12.10;99.90
7694;DHT22;3889;48.162;11.510;2023-04-01T09:33:28;12.20;99.90
7694;DHT22;3889;48.162;11.510;2023-04-01T09:36:04;12.10;99.90
7694;DHT22;3889;48.162;11.510;2023-04-01T09:38:47;11.70;99.90
7694;DHT22;3889;48.162;11.510;2023-04-01T09:41:27;11.80;99.90
7694;DHT22;3889;48.162;11.510;2023-04-01T09:44:01;11.70;99.90
7694;DHT22;3889;48.162;11.510;2023-04-01T09:46:45;11.90;99.90
7694;DHT22;3889;48.162;11.510;2023-04-01T09:49:49;12.10;99.90
7694;DHT22;3889;48.162;11.510;2023-04-01T09:52:28;12.30;99.90
7694;DHT22;3889;48.162;11.510;2023-04-01T09:55:12;12.50;99.90
7694;DHT22;3889;48.162;11.510;2023-04-01T10:01:15;12.30;99.90
7694;DHT22;3889;48.162;11.510;2023-04-01T10:04:22;12.20;99.90
7694;DHT22;3889;48.162;11.510;2023-04-01T10:07:30;11.80;99.90
7694;DHT22;3889;48.162;11.510;2023-04-01T10:16:56;12.80;99.90
7694;DHT22;3889;48.162;11.510;2023-04-01T10:20:01;12.90;99.90
7694;DHT22;3889;48.162;11.510;2023-04-01T10:23:11;13.00;99.90
7694;DHT22;3889;48.162;11.510;2023-04-01T10:35:03;12.60;99.90
7694;DHT22;3889;48.162;11.510;2023-04-01T10:37:57;12.50;99.90
7694;DHT22;3889;48.162;11.510;2023-04-01T10:43:58;12.50;99.90
7694;DHT22;3889;48.162;11.510;2023-04-01T10:47:12;12.60;99.90
7694;DHT22;3889;48.162;11.510;2023-04-01T10:50:05;12.40;99.90
7694;DHT22;3889;48.162;11.510;2023-04-01T10:53:02;12.10;99.90
7694;DHT22;3889;48.162;11.510;2023-04-01T11:02:28;11.40;99.90
7694;DHT22;3889;48.162;11.510;2023-04-01T11:12:06;10.80;99.90
7694;DHT22;3889;48.162;11.510;2023-04-01T11:18:22;11.10;99.90
7694;DHT22;3889;48.162;11.510;2023-04-01T11:21:16;11.10;99.90
7694;DHT22;3889;48.162;11.510;2023-04-01T11:24:09;11.10;99.90
7694;DHT22;3889;48.162;11.510;2023-04-01T11:26:46;11.30;99.90
7694;DHT22;3889;48.162;11.510;2023-04-01T11:35:51;11.10;99.90
7694;DHT22;3889;48.162;11.510;2023-04-01T11:38:42;10.90;99.90
7694;DHT22;3889;48.162;11.510;2023-04-01T11:41:22;10.80;99.90
7694;DHT22;3889;48.162;11.510;2023-04-01T11:44:03;11.00;99.90
7694;DHT22;3889;48.162;11.510;2023-04-01T11:46:42;10.70;99.90
7694;DHT22;3889;48.162;11.510;2023-04-01T11:49:25;10.30;99.90
7694;DHT22;3889;48.162;11.510;2023-04-01T11:52:17;10.10;99.90
7694;DHT22;3889;48.162;11.510;2023-04-01T11:57:52;10.20;99.90
7694;DHT22;3889;48.162;11.510;2023-04-01T12:00:50;10.20;99.90
7694;DHT22;3889;48.162;11.510;2023-04-01T12:03:36;10.00;99.90
7694;DHT22;3889;48.162;11.510;2023-04-01T12:06:13;9.80;99.90
7694;DHT22;3889;48.162;11.510;2023-04-01T12:08:50;9.80;99.90
7694;DHT22;3889;48.162;11.510;2023-04-01T12:11:25;9.60;99.90
7694;DHT22;3889;48.162;11.510;2023-04-01T12:14:02;9.50;99.90
7694;DHT22;3889;48.162;11.510;2023-04-01T12:16:44;9.20;99.90
7694;DHT22;3889;48.162;11.510;2023-04-01T12:19:20;9.40;99.90
7694;DHT22;3889;48.162;11.510;2023-04-01T12:21:59;9.20;99.90
7694;DHT22;3889;48.162;11.510;2023-04-01T12:24:44;9.30;99.90
7694;DHT22;3889;48.162;11.510;2023-04-01T12:27:49;9.10;99.90
7694;DHT22;3889;48.162;11.510;2023-04-01T12:30:32;9.20;99.90
7694;DHT22;3889;48.162;11.510;2023-04-01T12:33:20;9.20;99.90
7694;DHT22;3889;48.162;11.510;2023-04-01T12:35:58;9.30;99.90
7694;DHT22;3889;48.162;11.510;2023-04-01T12:38:36;9.30;99.90
7694;DHT22;3889;48.162;11.510;2023-04-01T12:41:17;9.20;99.90
7694;DHT22;3889;48.162;11.510;2023-04-01T12:46:58;9.10;99.90
7694;DHT22;3889;48.162;11.510;2023-04-01T12:49:39;9.10;99.90
7694;DHT22;3889;48.162;11.510;2023-04-01T12:52:25;9.20;99.90
7694;DHT22;3889;48.162;11.510;2023-04-01T12:55:26;9.20;99.90
7694;DHT22;3889;48.162;11.510;2023-04-01T12:58:25;9.20;99.90
7694;DHT22;3889;48.162;11.510;2023-04-01T13:04:25;9.20;99.90
7694;DHT22;3889;48.162;11.510;2023-04-01T13:07:16;9.00;99.90
7694;DHT22;3889;48.162;11.510;2023-04-01T13:09:56;9.20;99.90
7694;DHT22;3889;48.162;11.510;2023-04-01T13:15:25;9.20;99.90
7694;DHT22;3889;48.162;11.510;2023-04-01T13:17:58;9.30;99.90
7694;DHT22;3889;48.162;11.510;2023-04-01T13:20:36;9.30;99.90
7694;DHT22;3889;48.162;11.510;2023-04-01T13:23:19;9.30;99.90
7694;DHT22;3889;48.162;11.510;2023-04-01T13:25:53;9.20;99.90
7694;DHT22;3889;48.162;11.510;2023-04-01T13:28:42;9.20;99.90
7694;DHT22;3889;48.162;11.510;2023-04-01T13:31:26;9.20;99.90
7694;DHT22;3889;48.162;11.510;2023-04-01T13:34:08;9.20;99.90
7694;DHT22;3889;48.162;11.510;2023-04-01T13:36:48;9.20;99.90
7694;DHT22;3889;48.162;11.510;2023-04-01T13:39:37;9.30;99.90
7694;DHT22;3889;48.162;11.510;2023-04-01T13:42:22;9.20;99.90
7694;DHT22;3889;48.162;11.510;2023-04-01T13:44:59;9.40;99.90
7694;DHT22;3889;48.162;11.510;2023-04-01T13:47:57;9.40;99.90
7694;DHT22;3889;48.162;11.510;2023-04-01T13:50:34;9.20;99.90
7694;DHT22;3889;48.162;11.510;2023-04-01T13:56:15;9.30;99.90
7694;DHT22;3889;48.162;11.510;2023-04-01T13:58:57;9.30;99.90
7694;DHT22;3889;48.162;11.510;2023-04-01T14:01:32;9.30;99.90
7694;DHT22;3889;48.162;11.510;2023-04-01T14:04:34;9.50;99.90
7694;DHT22;3889;48.162;11.510;2023-04-01T14:07:23;9.50;99.90
7694;DHT22;3889;48.162;11.510;2023-04-01T14:10:07;9.60;99.90
7694;DHT22;3889;48.162;11.510;2023-04-01T14:12:41;9.60;99.90
7694;DHT22;3889;48.162;11.510;2023-04-01T14:15:25;9.50;99.90
7694;DHT22;3889;48.162;11.510;2023-04-01T14:18:08;9.50;99.90
7694;DHT22;3889;48.162;11.510;2023-04-01T14:20:47;9.60;99.90
7694;DHT22;3889;48.162;11.510;2023-04-01T14:23:43;9.50;99.90
7694;DHT22;3889;48.162;11.510;2023-04-01T14:29:33;9.60;99.90
7694;DHT22;3889;48.162;11.510;2023-04-01T14:32:11;9.50;99.90
7694;DHT22;3889;48.162;11.510;2023-04-01T14:34:59;9.60;99.90
7694;DHT22;3889;48.162;11.510;2023-04-01T14:37:49;9.80;99.90
7694;DHT22;3889;48.162;11.510;2023-04-01T14:40:37;10.10;99.90
7694;DHT22;3889;48.162;11.510;2023-04-01T14:43:21;10.20;99.90
7694;DHT22;3889;48.162;11.510;2023-04-01T14:48:57;10.10;99.90
7694;DHT22;3889;48.162;11.510;2023-04-01T14:51:30;10.10;99.90
7694;DHT22;3889;48.162;11.510;2023-04-01T14:54:05;10.10;99.90
7694;DHT22;3889;48.162;11.510;2023-04-01T14:56:37;9.90;99.90
7694;DHT22;3889;48.162;11.510;2023-04-01T14:59:10;9.90;99.90
7694;DHT22;3889;48.162;11.510;2023-04-01T15:01:43;9.70;99.90
7694;DHT22;3889;48.162;11.510;2023-04-01T15:04:37;10.00;99.90
7694;DHT22;3889;48.162;11.510;2023-04-01T15:07:26;10.10;99.90
7694;DHT22;3889;48.162;11.510;2023-04-01T15:10:04;9.90;99.90
7694;DHT22;3889;48.162;11.510;2023-04-01T15:12:40;9.80;99.90
7694;DHT22;3889;48.162;11.510;2023-04-01T15:15:23;9.80;99.90
7694;DHT22;3889;48.162;11.510;2023-04-01T15:18:05;9.80;99.90
7694;DHT22;3889;48.162;11.510;2023-04-01T15:21:05;9.80;99.90
7694;DHT22;3889;48.162;11.510;2023-04-01T15:23:49;9.80;99.90
7694;DHT22;3889;48.162;11.510;2023-04-01T15:26:53;9.80;99.90
7694;DHT22;3889;48.162;11.510;2023-04-01T15:29:52;9.70;99.90
7694;DHT22;3889;48.162;11.510;2023-04-01T15:32:42;9.80;99.90
7694;DHT22;3889;48.162;11.510;2023-04-01T15:35:21;9.90;99.90
7694;DHT22;3889;48.162;11.510;2023-04-01T15:37:56;9.90;99.90
7694;DHT22;3889;48.162;11.510;2023-04-01T15:40:30;10.00;99.90
7694;DHT22;3889;48.162;11.510;2023-04-01T15:43:08;10.00;99.90
7694;DHT22;3889;48.162;11.510;2023-04-01T15:45:48;10.00;99.90
7694;DHT22;3889;48.162;11.510;2023-04-01T15:48:27;10.00;99.90
7694;DHT22;3889;48.162;11.510;2023-04-01T15:51:07;10.00;99.90
7694;DHT22;3889;48.162;11.510;2023-04-01T15:53:56;10.20;99.90
7694;DHT22;3889;48.162;11.510;2023-04-01T15:56:42;10.20;99.90
7694;DHT22;3889;48.162;11.510;2023-04-01T15:59:35;10.30;99.90
7694;DHT22;3889;48.162;11.510;2023-04-01T16:02:12;10.20;99.90
7694;DHT22;3889;48.162;11.510;2023-04-01T16:04:58;10.30;99.90
7694;DHT22;3889;48.162;11.510;2023-04-01T16:10:23;10.20;99.90
7694;DHT22;3889;48.162;11.510;2023-04-01T16:13:03;10.30;99.90
7694;DHT22;3889;48.162;11.510;2023-04-01T16:15:44;10.30;99.90
7694;DHT22;3889;48.162;11.510;2023-04-01T16:18:33;10.40;99.90
7694;DHT22;3889;48.162;11.510;2023-04-01T16:21:08;10.40;99.90
7694;DHT22;3889;48.162;11.510;2023-04-01T16:23:42;10.40;99.90
7694;DHT22;3889;48.162;11.510;2023-04-01T16:26:18;10.30;99.90
7694;DHT22;3889;48.162;11.510;2023-04-01T16:28:52;10.30;99.90
7694;DHT22;3889;48.162;11.510;2023-04-01T16:31:32;10.20;99.90
7694;DHT22;3889;48.162;11.510;2023-04-01T16:34:08;10.10;99.90
7694;DHT22;3889;48.162;11.510;2023-04-01T16:36:41;10.00;99.90
7694;DHT22;3889;48.162;11.510;2023-04-01T16:39:27;10.00;99.90
7694;DHT22;3889;48.162;11.510;2023-04-01T16:42:13;10.00;99.90
7694;DHT22;3889;48.162;11.510;2023-04-01T16:44:48;10.00;99.90
7694;DHT22;3889;48.162;11.510;2023-04-01T16:47:20;10.00;99.90
7694;DHT22;3889;48.162;11.510;2023-04-01T16:49:53;9.90;99.90
7694;DHT22;3889;48.162;11.510;2023-04-01T16:52:42;9.80;99.90
7694;DHT22;3889;48.162;11.510;2023-04-01T16:55:18;9.80;99.90
7694;DHT22;3889;48.162;11.510;2023-04-01T16:57:50;9.80;99.90
7694;DHT22;3889;48.162;11.510;2023-04-01T17:00:25;9.70;99.90
7694;DHT22;3889;48.162;11.510;2023-04-01T17:03:04;9.70;99.90
7694;DHT22;3889;48.162;11.510;2023-04-01T17:05:45;9.80;99.90
7694;DHT22;3889;48.162;11.510;2023-04-01T17:08:28;9.80;99.90
7694;DHT22;3889;48.162;11.510;2023-04-01T17:11:07;9.70;99.90
7694;DHT22;3889;48.162;11.510;2023-04-01T17:13:44;9.60;99.90
7694;DHT22;3889;48.162;11.510;2023-04-01T17:16:38;9.60;99.90
7694;DHT22;3889;48.162;11.510;2023-04-01T17:19:24;9.60;99.90
7694;DHT22;3889;48.162;11.510;2023-04-01T17:21:57;9.60;99.90
7694;DHT22;3889;48.162;11.510;2023-04-01T17:24:39;9.60;99.90
7694;DHT22;3889;48.162;11.510;2023-04-01T17:27:18;9.60;99.90
7694;DHT22;3889;48.162;11.510;2023-04-01T17:30:03;9.60;99.90
7694;DHT22;3889;48.162;11.510;2023-04-01T17:32:47;9.60;99.90
7694;DHT22;3889;48.162;11.510;2023-04-01T17:35:22;9.60;99.90
7694;DHT22;3889;48.162;11.510;2023-04-01T17:38:01;9.60;99.90
7694;DHT22;3889;48.162;11.510;2023-04-01T17:40:41;9.50;99.90
7694;DHT22;3889;48.162;11.510;2023-04-01T17:43:22;9.60;99.90
7694;DHT22;3889;48.162;11.510;2023-04-01T17:45:55;9.60;99.90
7694;DHT22;3889;48.162;11.510;2023-04-01T17:48:32;9.60;99.90
7694;DHT22;3889;48.162;11.510;2023-04-01T17:51:10;9.50;99.90
7694;DHT22;3889;48.162;11.510;2023-04-01T17:53:46;9.50;99.90
7694;DHT22;3889;48.162;11.510;2023-04-01T17:56:32;9.40;99.90
7694;DHT22;3889;48.162;11.510;2023-04-01T17:59:10;9.50;99.90
7694;DHT22;3889;48.162;11.510;2023-04-01T18:01:46;9.50;99.90
7694;DHT22;3889;48.162;11.510;2023-04-01T18:04:36;9.50;99.90
7694;DHT22;3889;48.162;11.510;2023-04-01T18:10:12;9.50;99.90
7694;DHT22;3889;48.162;11.510;2023-04-01T18:13:00;9.40;99.90
7694;DHT22;3889;48.162;11.510;2023-04-01T18:15:33;9.40;99.90
7694;DHT22;3889;48.162;11.510;2023-04-01T18:18:16;9.40;99.90
7694;DHT22;3889;48.162;11.510;2023-04-01T18:20:52;9.40;99.90
7694;DHT22;3889;48.162;11.510;2023-04-01T18:23:28;9.40;99.90
7694;DHT22;3889;48.162;11.510;2023-04-01T18:26:04;9.50;99.90
7694;DHT22;3889;48.162;11.510;2023-04-01T18:28:36;9.50;99.90
7694;DHT22;3889;48.162;11.510;2023-04-01T18:31:08;9.50;99.90
7694;DHT22;3889;48.162;11.510;2023-04-01T18:33:46;9.50;99.90